Time;durP1;ratioP1;P1;durP2;ratioP2;P2;SDS_P1;SDS_P2;PMS_P1;PMS_P2;Temp;Humidity;BMP_temperature;BMP_pressure;BME280_temperature;BME280_humidity;BME280_pressure;Samples;Min_cycle;Max_cycle;Signal;HPM_P1;HPM_P2
2022/10/13 00:00:44;;;;;;;2.42;2.00;;;15.00;99.90;;;;;;5013692;28;20026;-82
2022/10/13 00:03:10;;;;;;;2.55;2.00;;;14.90;99.90;;;;;;5013702;28;20037;-82
2022/10/13 00:05:41;;;;;;;2.50;1.80;;;14.70;99.90;;;;;;5013749;28;20022;-82
2022/10/13 00:08:07;;;;;;;2.20;2.00;;;14.80;99.90;;;;;;5013722;28;20018;-82
2022/10/13 00:10:37;;;;;;;2.45;1.90;;;14.90;99.90;;;;;;5013595;28;20026;-82
2022/10/13 00:13:03;;;;;;;3.22;2.40;;;14.90;99.90;;;;;;5013351;28;20033;-82
2022/10/13 00:15:29;;;;;;;3.03;1.92;;;14.90;99.90;;;;;;5013495;28;20567;-82
2022/10/13 00:17:55;;;;;;;4.03;1.85;;;15.00;99.90;;;;;;5013647;28;20156;-82
2022/10/13 00:20:20;;;;;;;2.83;2.08;;;15.00;99.90;;;;;;5013498;28;20391;-82
2022/10/13 00:22:46;;;;;;;4.30;2.15;;;14.90;99.90;;;;;;5013425;28;20057;-82
2022/10/13 00:25:12;;;;;;;1.83;1.70;;;14.90;99.90;;;;;;5013092;28;20419;-82
2022/10/13 00:27:37;;;;;;;2.72;2.00;;;14.90;99.90;;;;;;5012634;28;20030;-82
2022/10/13 00:30:04;;;;;;;2.53;2.10;;;14.80;99.90;;;;;;5013311;28;20022;-82
2022/10/13 00:32:29;;;;;;;3.03;2.30;;;14.50;99.90;;;;;;5013201;28;20037;-82
2022/10/13 00:34:56;;;;;;;2.00;1.80;;;14.50;99.90;;;;;;5012071;28;20029;-82
2022/10/13 00:37:22;;;;;;;2.58;2.38;;;14.50;99.90;;;;;;5013002;28;20028;-82
2022/10/13 00:39:48;;;;;;;2.58;2.13;;;14.60;99.90;;;;;;5012845;28;20026;-82
2022/10/13 00:42:14;;;;;;;2.42;2.00;;;14.60;99.90;;;;;;5013678;28;20026;-82
2022/10/13 00:45:31;;;;;;;1.75;1.65;;;14.70;99.90;;;;;;5011857;28;20406;-82
2022/10/13 00:48:01;;;;;;;3.85;1.80;;;14.70;99.90;;;;;;5001780;28;20408;-82
2022/10/13 00:50:36;;;;;;;3.53;1.98;;;14.60;99.90;;;;;;5010262;28;20105;-82
2022/10/13 00:53:02;;;;;;;3.97;1.88;;;14.60;99.90;;;;;;5010225;28;20034;-82
2022/10/13 00:55:32;;;;;;;2.10;2.00;;;14.50;99.90;;;;;;5009707;28;20503;-82
2022/10/13 00:58:01;;;;;;;2.15;1.90;;;14.50;99.90;;;;;;5009839;28;20045;-82
2022/10/13 01:00:27;;;;;;;2.75;1.98;;;14.40;99.90;;;;;;5010260;28;20034;-82
2022/10/13 01:02:53;;;;;;;3.30;1.90;;;14.60;99.90;;;;;;5009993;28;20030;-82
2022/10/13 01:05:20;;;;;;;2.47;1.63;;;14.60;99.90;;;;;;5010067;28;20516;-82
2022/10/13 01:07:48;;;;;;;2.22;1.77;;;14.70;99.90;;;;;;5010463;28;20040;-82
2022/10/13 01:10:23;;;;;;;2.95;2.03;;;14.70;99.90;;;;;;4997037;28;20041;-82
2022/10/13 01:13:02;;;;;;;2.50;1.90;;;14.70;99.90;;;;;;5009789;28;20056;-82
2022/10/13 01:15:40;;;;;;;2.33;1.65;;;14.70;99.90;;;;;;5010105;28;20096;-82
2022/10/13 01:18:39;;;;;;;3.90;2.38;;;14.60;99.90;;;;;;4996919;28;20034;-81
2022/10/13 01:21:07;;;;;;;3.00;2.58;;;14.30;99.90;;;;;;5009763;28;20030;-81
2022/10/13 01:24:08;;;;;;;3.08;1.95;;;14.20;99.90;;;;;;5010869;28;20053;-82
2022/10/13 01:26:55;;;;;;;2.42;2.13;;;14.30;99.90;;;;;;5000965;28;20076;-81
2022/10/13 01:29:27;;;;;;;2.13;1.92;;;14.40;99.90;;;;;;5013080;28;20092;-81
2022/10/13 01:32:05;;;;;;;2.00;1.83;;;14.40;99.90;;;;;;5012979;28;20565;-81
2022/10/13 01:34:59;;;;;;;2.65;2.45;;;14.40;99.90;;;;;;5013124;28;20026;-81
2022/10/13 01:37:40;;;;;;;1.90;1.70;;;14.40;99.90;;;;;;5012430;28;20033;-82
2022/10/13 01:40:21;;;;;;;2.05;1.60;;;14.40;99.90;;;;;;5012793;28;20084;-82
2022/10/13 01:43:10;;;;;;;2.85;1.65;;;14.50;99.90;;;;;;5012596;28;20164;-81
2022/10/13 01:45:43;;;;;;;2.90;1.88;;;14.50;99.90;;;;;;5012612;28;20030;-82
2022/10/13 01:48:10;;;;;;;2.05;1.50;;;14.60;99.90;;;;;;5012422;28;20123;-82
2022/10/13 01:50:37;;;;;;;3.10;1.77;;;14.50;99.90;;;;;;5011731;28;20021;-81
2022/10/13 01:53:04;;;;;;;2.50;1.65;;;14.40;99.90;;;;;;5011630;28;20033;-81
2022/10/13 01:55:30;;;;;;;1.98;1.85;;;14.40;99.90;;;;;;5010045;28;20161;-81
2022/10/13 01:57:56;;;;;;;1.77;1.58;;;14.40;99.90;;;;;;5011684;28;20022;-82
2022/10/13 02:00:23;;;;;;;2.00;1.70;;;14.40;99.90;;;;;;5011381;28;20037;-81
2022/10/13 02:03:04;;;;;;;1.67;1.58;;;14.20;99.90;;;;;;5011742;28;20026;-81
2022/10/13 02:05:48;;;;;;;2.10;1.67;;;14.10;99.90;;;;;;5011324;28;20075;-82
2022/10/13 02:08:19;;;;;;;2.13;1.70;;;14.20;99.90;;;;;;5011143;28;20030;-82
2022/10/13 02:10:55;;;;;;;2.95;1.88;;;14.10;99.90;;;;;;5010911;28;20129;-82
2022/10/13 02:13:25;;;;;;;2.75;1.90;;;14.00;99.90;;;;;;5010956;28;20052;-82
2022/10/13 02:15:55;;;;;;;2.42;1.90;;;14.10;99.90;;;;;;5010565;28;20026;-82
2022/10/13 02:18:25;;;;;;;3.05;2.10;;;14.10;99.90;;;;;;5010976;28;20061;-82
2022/10/13 02:20:52;;;;;;;2.83;1.90;;;14.00;99.90;;;;;;5010667;28;20097;-81
2022/10/13 02:23:18;;;;;;;2.25;2.05;;;13.90;99.90;;;;;;5011193;28;20273;-81
2022/10/13 02:25:46;;;;;;;1.77;1.63;;;13.80;99.90;;;;;;5010965;28;20048;-82
2022/10/13 02:28:14;;;;;;;2.67;1.92;;;13.90;99.90;;;;;;5025917;28;20034;-82
2022/10/13 02:30:40;;;;;;;2.63;1.48;;;14.00;99.90;;;;;;5011048;28;20108;-82
2022/10/13 02:33:07;;;;;;;2.30;1.67;;;14.00;99.90;;;;;;5009975;28;20033;-82
2022/10/13 02:35:33;;;;;;;2.60;2.10;;;13.90;99.90;;;;;;5010263;28;20049;-82
2022/10/13 02:37:59;;;;;;;1.98;1.70;;;13.80;99.90;;;;;;5010844;28;20311;-82
2022/10/13 02:40:26;;;;;;;2.88;2.10;;;13.80;99.90;;;;;;5010635;28;20565;-82
2022/10/13 02:42:51;;;;;;;3.20;1.88;;;13.90;99.90;;;;;;5003669;28;20022;-82
2022/10/13 02:45:17;;;;;;;3.17;1.73;;;14.00;99.90;;;;;;5011127;28;20488;-82
2022/10/13 02:47:44;;;;;;;2.35;1.80;;;14.00;99.90;;;;;;5010947;28;20046;-82
2022/10/13 02:50:09;;;;;;;3.83;1.73;;;14.10;99.90;;;;;;5010117;28;20149;-82
2022/10/13 02:52:35;;;;;;;2.00;1.67;;;14.10;99.90;;;;;;5010091;28;20030;-82
2022/10/13 02:55:01;;;;;;;3.22;2.30;;;14.10;99.90;;;;;;5010521;28;20387;-82
2022/10/13 02:57:27;;;;;;;2.55;1.85;;;14.10;99.90;;;;;;5010482;28;20026;-82
2022/10/13 02:59:53;;;;;;;4.53;1.83;;;14.10;99.90;;;;;;5006961;28;20037;-82
2022/10/13 03:02:18;;;;;;;2.45;2.03;;;14.00;99.90;;;;;;5014296;28;20145;-82
2022/10/13 03:04:44;;;;;;;2.22;1.88;;;13.90;99.90;;;;;;5014257;28;20523;-82
2022/10/13 03:07:10;;;;;;;3.17;1.90;;;13.90;99.90;;;;;;5014187;28;20033;-82
2022/10/13 03:09:36;;;;;;;3.38;2.33;;;13.90;99.90;;;;;;5014411;28;20045;-82
2022/10/13 03:12:01;;;;;;;3.75;2.20;;;13.70;99.90;;;;;;5012936;28;20415;-82
2022/10/13 03:14:27;;;;;;;2.72;2.03;;;13.60;99.90;;;;;;5014526;28;20056;-82
2022/10/13 03:16:53;;;;;;;2.65;1.85;;;13.70;99.90;;;;;;5013317;28;20499;-82
2022/10/13 03:19:19;;;;;;;2.20;1.80;;;13.90;99.90;;;;;;5013888;28;20022;-82
2022/10/13 03:21:44;;;;;;;3.53;2.17;;;13.90;99.90;;;;;;5013823;28;20539;-82
2022/10/13 03:24:10;;;;;;;2.55;2.13;;;14.00;99.90;;;;;;5014312;28;20101;-82
2022/10/13 03:26:36;;;;;;;2.45;2.17;;;14.00;99.90;;;;;;5014373;28;20499;-82
2022/10/13 03:29:02;;;;;;;2.42;2.00;;;14.00;99.90;;;;;;5013844;28;20514;-82
2022/10/13 03:31:28;;;;;;;3.72;2.03;;;13.90;99.90;;;;;;5014001;28;20522;-82
2022/10/13 03:33:53;;;;;;;2.05;1.85;;;13.90;99.90;;;;;;5013807;28;20123;-82
2022/10/13 03:36:19;;;;;;;5.25;2.42;;;14.00;99.90;;;;;;5013576;28;20037;-82
2022/10/13 03:38:45;;;;;;;3.13;1.77;;;14.00;99.90;;;;;;5013999;28;20109;-82
2022/10/13 03:41:13;;;;;;;2.50;1.95;;;13.90;99.90;;;;;;5012285;28;20014;-82
2022/10/13 03:43:40;;;;;;;1.80;1.70;;;13.90;99.90;;;;;;5009017;28;20029;-82
2022/10/13 03:46:06;;;;;;;2.47;2.03;;;14.00;99.90;;;;;;5012378;28;20030;-82
2022/10/13 03:48:33;;;;;;;4.50;3.00;;;13.90;99.90;;;;;;5013399;28;20026;-82
2022/10/13 03:51:02;;;;;;;2.13;1.77;;;13.90;99.90;;;;;;5029048;28;20029;-82
2022/10/13 03:53:28;;;;;;;2.53;2.33;;;13.90;99.90;;;;;;5012594;28;20033;-82
2022/10/13 03:55:55;;;;;;;3.05;1.73;;;13.90;99.90;;;;;;5013771;28;20048;-82
2022/10/13 03:58:23;;;;;;;3.00;1.80;;;14.00;99.90;;;;;;5013331;28;20025;-81
2022/10/13 04:00:50;;;;;;;3.65;2.58;;;13.80;99.90;;;;;;5021785;28;20076;-82
2022/10/13 04:03:16;;;;;;;3.88;1.80;;;13.90;99.90;;;;;;5013619;28;20030;-81
2022/10/13 04:05:42;;;;;;;3.13;1.92;;;13.90;99.90;;;;;;5011861;28;20036;-82
2022/10/13 04:08:08;;;;;;;3.10;1.65;;;13.90;99.90;;;;;;5013497;28;20034;-81
2022/10/13 04:10:34;;;;;;;2.75;1.83;;;14.00;99.90;;;;;;5012401;28;20578;-82
2022/10/13 04:12:59;;;;;;;2.58;2.38;;;14.00;99.90;;;;;;5012967;28;20037;-82
2022/10/13 04:15:25;;;;;;;2.80;2.20;;;14.10;99.90;;;;;;5011957;28;20045;-82
2022/10/13 04:17:51;;;;;;;2.28;1.73;;;14.00;99.90;;;;;;5027825;28;20112;-82
2022/10/13 04:20:17;;;;;;;2.78;1.92;;;14.00;99.90;;;;;;5028335;28;20029;-82
2022/10/13 04:22:43;;;;;;;2.50;2.20;;;14.00;99.90;;;;;;5012948;28;20049;-82
2022/10/13 04:25:09;;;;;;;2.47;2.28;;;14.00;99.90;;;;;;5013297;28;20026;-82
2022/10/13 04:27:38;;;;;;;2.75;1.90;;;14.00;99.90;;;;;;5028085;28;20523;-82
2022/10/13 04:30:07;;;;;;;3.80;2.30;;;13.90;99.90;;;;;;5011658;28;20030;-81
2022/10/13 04:32:33;;;;;;;2.53;2.10;;;13.90;99.90;;;;;;5011518;28;20029;-81
2022/10/13 04:34:59;;;;;;;2.40;2.15;;;13.90;99.90;;;;;;5012881;28;20165;-82
2022/10/13 04:37:25;;;;;;;3.10;2.58;;;13.90;99.90;;;;;;5012889;28;20053;-82
2022/10/13 04:39:50;;;;;;;3.90;2.10;;;14.00;99.90;;;;;;5012593;28;20061;-82
2022/10/13 04:42:16;;;;;;;2.42;2.22;;;14.10;99.90;;;;;;5018227;28;20033;-82
2022/10/13 04:44:42;;;;;;;2.30;2.00;;;14.00;99.90;;;;;;5013310;28;20499;-82
2022/10/13 04:47:07;;;;;;;3.40;2.50;;;13.90;99.90;;;;;;5016080;28;20495;-81
2022/10/13 04:49:33;;;;;;;3.53;2.17;;;13.90;99.90;;;;;;5012688;28;20527;-82
2022/10/13 04:51:59;;;;;;;3.33;2.40;;;13.90;99.90;;;;;;5012874;28;20091;-82
2022/10/13 04:54:25;;;;;;;2.38;2.17;;;13.90;99.90;;;;;;5012618;28;20566;-82
2022/10/13 04:56:50;;;;;;;2.00;1.80;;;13.90;99.90;;;;;;5027819;28;20052;-81
2022/10/13 04:59:16;;;;;;;2.53;2.30;;;14.00;99.90;;;;;;5012870;28;20018;-82
2022/10/13 05:01:42;;;;;;;3.50;2.28;;;13.90;99.90;;;;;;5027747;28;20030;-81
2022/10/13 05:04:09;;;;;;;2.40;2.15;;;14.00;99.90;;;;;;5012564;28;20022;-82
2022/10/13 05:06:38;;;;;;;2.33;2.13;;;14.00;99.90;;;;;;5012321;28;20495;-82
2022/10/13 05:09:04;;;;;;;5.78;2.28;;;14.00;99.90;;;;;;5011085;28;20450;-82
2022/10/13 05:11:31;;;;;;;5.65;2.67;;;13.90;99.90;;;;;;5012448;28;20026;-81
2022/10/13 05:13:57;;;;;;;2.60;2.30;;;13.90;99.90;;;;;;5012779;28;20076;-81
2022/10/13 05:16:23;;;;;;;3.78;2.33;;;13.90;99.90;;;;;;5011992;28;20030;-81
2022/10/13 05:18:51;;;;;;;2.72;2.25;;;13.90;99.90;;;;;;5010671;28;20045;-81
2022/10/13 05:21:23;;;;;;;2.13;1.95;;;13.90;99.90;;;;;;5011873;28;20037;-82
2022/10/13 05:23:52;;;;;;;3.05;2.72;;;13.90;99.90;;;;;;5011873;28;20037;-81
2022/10/13 05:26:18;;;;;;;2.55;2.20;;;13.90;99.90;;;;;;5010191;28;20083;-81
2022/10/13 05:28:44;;;;;;;3.72;2.35;;;13.80;99.90;;;;;;5012141;28;20026;-81
2022/10/13 05:31:14;;;;;;;2.40;2.20;;;13.90;99.90;;;;;;5012213;28;20518;-81
2022/10/13 05:33:41;;;;;;;2.90;2.22;;;13.90;99.90;;;;;;5012480;28;20061;-81
2022/10/13 05:36:09;;;;;;;4.18;2.35;;;13.90;99.90;;;;;;5012076;28;20029;-82
2022/10/13 05:38:35;;;;;;;2.75;2.53;;;13.80;99.90;;;;;;5027310;28;20026;-82
2022/10/13 05:41:12;;;;;;;2.35;2.15;;;13.70;99.90;;;;;;5011666;28;20025;-81
2022/10/13 05:43:40;;;;;;;3.83;2.30;;;13.80;99.90;;;;;;5012022;28;20448;-81
2022/10/13 05:46:07;;;;;;;2.88;2.33;;;13.80;99.90;;;;;;5017066;28;20026;-81
2022/10/13 05:48:33;;;;;;;4.20;2.60;;;13.90;99.90;;;;;;5012295;28;20037;-81
2022/10/13 05:51:01;;;;;;;3.40;2.60;;;13.90;99.90;;;;;;5012175;28;20026;-81
2022/10/13 05:53:34;;;;;;;3.33;2.47;;;14.00;99.90;;;;;;5026810;28;20022;-81
2022/10/13 05:56:06;;;;;;;3.67;2.53;;;14.00;99.90;;;;;;5011612;28;20022;-81
2022/10/13 05:58:39;;;;;;;2.92;2.38;;;13.90;99.90;;;;;;5011644;28;20021;-81
2022/10/13 06:01:08;;;;;;;2.50;2.30;;;13.70;99.90;;;;;;5017932;28;20037;-81
2022/10/13 06:03:34;;;;;;;2.38;2.15;;;13.80;99.90;;;;;;5011601;28;20014;-81
2022/10/13 06:06:00;;;;;;;3.42;2.50;;;13.80;99.90;;;;;;5026914;28;20030;-81
2022/10/13 06:08:28;;;;;;;2.50;2.30;;;13.90;99.90;;;;;;5027134;28;20026;-80
2022/10/13 06:10:53;;;;;;;4.15;2.90;;;13.90;99.90;;;;;;5011115;28;20030;-81
2022/10/13 06:13:19;;;;;;;4.25;2.83;;;13.80;99.90;;;;;;5011429;28;20076;-81
2022/10/13 06:15:45;;;;;;;3.97;2.90;;;13.80;99.90;;;;;;5011699;28;20021;-81
2022/10/13 06:18:10;;;;;;;4.07;2.97;;;14.00;99.90;;;;;;5011428;28;20014;-81
2022/10/13 06:20:36;;;;;;;2.60;2.40;;;14.00;99.90;;;;;;5011588;28;20542;-81
2022/10/13 06:23:02;;;;;;;3.13;2.80;;;14.00;99.90;;;;;;5026454;28;20081;-82
2022/10/13 06:25:28;;;;;;;4.75;2.80;;;14.00;99.90;;;;;;5010968;28;20439;-82
2022/10/13 06:27:56;;;;;;;2.90;2.50;;;14.00;99.90;;;;;;5010867;28;20021;-82
2022/10/13 06:30:21;;;;;;;4.25;2.80;;;14.00;99.90;;;;;;5011007;28;20049;-82
2022/10/13 06:32:47;;;;;;;3.35;2.60;;;14.10;99.90;;;;;;5026116;28;20026;-82
2022/10/13 06:35:13;;;;;;;3.47;2.80;;;14.10;99.90;;;;;;5011312;28;20076;-82
2022/10/13 06:37:39;;;;;;;2.97;2.70;;;14.10;99.90;;;;;;5011085;28;20022;-82
2022/10/13 06:40:05;;;;;;;4.53;2.75;;;14.10;99.90;;;;;;5011152;28;20109;-82
2022/10/13 06:42:32;;;;;;;3.42;2.83;;;14.10;99.90;;;;;;5025566;28;20507;-82
2022/10/13 06:44:58;;;;;;;5.65;3.80;;;14.20;99.90;;;;;;5012748;28;20045;-82
2022/10/13 06:47:24;;;;;;;11.48;4.30;;;14.10;99.90;;;;;;5010504;28;20045;-82
2022/10/13 06:49:49;;;;;;;17.77;4.78;;;14.10;99.90;;;;;;5017168;28;20030;-82
2022/10/13 06:52:15;;;;;;;14.23;4.53;;;14.10;99.90;;;;;;5010397;28;20022;-82
2022/10/13 06:54:41;;;;;;;13.43;5.13;;;14.10;99.90;;;;;;5010892;28;20021;-84
2022/10/13 06:57:06;;;;;;;15.23;5.50;;;14.10;99.90;;;;;;5010550;28;20022;-83
2022/10/13 06:59:32;;;;;;;12.15;5.43;;;14.00;99.90;;;;;;5004905;28;20140;-83
2022/10/13 07:01:58;;;;;;;14.48;5.35;;;14.10;99.90;;;;;;5007587;28;20034;-83
2022/10/13 07:04:24;;;;;;;9.55;4.65;;;14.20;99.90;;;;;;5010201;28;20112;-83
2022/10/13 07:06:50;;;;;;;7.93;4.63;;;14.40;99.90;;;;;;5010105;28;20027;-83
2022/10/13 07:09:16;;;;;;;17.77;4.78;;;14.40;99.90;;;;;;5006295;28;20026;-84
2022/10/13 07:11:46;;;;;;;13.13;5.07;;;14.50;99.90;;;;;;5013514;28;20041;-84
2022/10/13 07:14:13;;;;;;;9.23;4.60;;;14.60;99.90;;;;;;5014101;28;20053;-84
2022/10/13 07:16:38;;;;;;;10.38;4.65;;;14.60;99.90;;;;;;5010272;28;20032;-84
2022/10/13 07:19:04;;;;;;;10.20;4.65;;;14.70;99.90;;;;;;5007718;28;20033;-84
2022/10/13 07:21:30;;;;;;;10.25;4.47;;;14.60;99.90;;;;;;5009851;28;20077;-84
2022/10/13 07:23:56;;;;;;;11.45;4.68;;;14.90;99.90;;;;;;5010269;28;20033;-84
2022/10/13 07:26:21;;;;;;;12.90;4.55;;;15.40;99.90;;;;;;5005763;28;20563;-83
2022/10/13 07:28:47;;;;;;;10.85;4.68;;;17.00;99.90;;;;;;5024636;28;20037;-83
2022/10/13 07:31:18;;;;;;;14.07;5.40;;;17.40;99.90;;;;;;5010081;28;20033;-82
2022/10/13 07:33:46;;;;;;;9.80;5.47;;;17.60;99.90;;;;;;5010304;28;20036;-83
2022/10/13 07:36:12;;;;;;;10.93;4.50;;;17.20;99.90;;;;;;5008899;28;20296;-82
2022/10/13 07:38:39;;;;;;;10.52;6.03;;;17.00;99.90;;;;;;5014176;28;20021;-83
2022/10/13 07:41:07;;;;;;;8.85;4.72;;;16.80;99.90;;;;;;5009124;28;20030;-82
2022/10/13 07:43:33;;;;;;;7.43;4.75;;;16.40;99.90;;;;;;5010915;28;20026;-82
2022/10/13 07:45:59;;;;;;;9.88;4.75;;;16.40;99.90;;;;;;5015134;28;20026;-83
2022/10/13 07:48:26;;;;;;;5.70;4.05;;;16.40;99.90;;;;;;5017412;28;20025;-83
2022/10/13 07:50:52;;;;;;;5.85;4.10;;;16.30;99.90;;;;;;5012954;28;20034;-83
2022/10/13 07:53:17;;;;;;;8.13;4.50;;;16.30;99.90;;;;;;5014095;28;20045;-83
2022/10/13 07:55:43;;;;;;;4.75;3.60;;;16.50;99.90;;;;;;5013615;28;20041;-82
2022/10/13 07:58:09;;;;;;;5.78;4.00;;;16.90;99.90;;;;;;5028671;28;20205;-83
2022/10/13 08:00:35;;;;;;;4.05;3.60;;;17.90;99.90;;;;;;5013526;28;20358;-82
2022/10/13 08:03:01;;;;;;;5.15;3.63;;;17.50;99.90;;;;;;5013351;28;20069;-83
2022/10/13 08:05:27;;;;;;;4.05;3.65;;;17.10;99.90;;;;;;5013213;28;20590;-82
2022/10/13 08:07:52;;;;;;;3.50;3.10;;;17.20;99.90;;;;;;5013692;28;20399;-83
2022/10/13 08:10:19;;;;;;;6.10;3.83;;;18.70;99.90;;;;;;5014881;28;20503;-83
2022/10/13 08:12:45;;;;;;;4.30;3.38;;;20.80;99.90;;;;;;5013120;28;20018;-83
2022/10/13 08:15:11;;;;;;;5.20;3.80;;;20.30;99.90;;;;;;5013781;28;20026;-83
2022/10/13 08:17:37;;;;;;;5.30;3.75;;;19.30;99.90;;;;;;5012832;28;20022;-84
2022/10/13 08:20:04;;;;;;;6.05;4.35;;;18.60;99.90;;;;;;5012580;28;20030;-85
2022/10/13 08:22:30;;;;;;;6.18;4.40;;;18.30;99.90;;;;;;5012894;28;20143;-86
2022/10/13 08:24:55;;;;;;;6.00;4.00;;;18.30;99.90;;;;;;5013051;28;20519;-84
2022/10/13 08:27:23;;;;;;;5.35;4.07;;;18.20;99.90;;;;;;5028657;28;20030;-87
2022/10/13 08:29:49;;;;;;;6.10;4.22;;;19.00;99.90;;;;;;5012782;28;20037;-83
2022/10/13 08:32:15;;;;;;;5.60;3.75;;;18.60;99.90;;;;;;5027288;28;20026;-83
2022/10/13 08:34:41;;;;;;;5.32;4.18;;;20.10;99.90;;;;;;5009306;28;20033;-82
2022/10/13 08:37:13;;;;;;;7.10;5.03;;;20.70;99.90;;;;;;5009332;28;20403;-82
2022/10/13 08:39:39;;;;;;;8.40;4.97;;;20.20;99.90;;;;;;5010125;28;20037;-82
2022/10/13 08:42:13;;;;;;;5.65;4.55;;;21.20;99.90;;;;;;5011135;28;20022;-82
2022/10/13 08:44:45;;;;;;;5.28;4.38;;;21.80;99.90;;;;;;5012269;28;20117;-82
2022/10/13 08:47:26;;;;;;;8.95;5.20;;;21.00;99.90;;;;;;5011177;28;20038;-84
2022/10/13 08:49:54;;;;;;;7.38;5.32;;;19.60;99.90;;;;;;5012147;28;20503;-85
2022/10/13 08:52:23;;;;;;;9.40;5.00;;;19.40;99.90;;;;;;5011136;28;20120;-84
2022/10/13 08:54:49;;;;;;;6.85;5.30;;;19.50;99.90;;;;;;5011454;28;20562;-84
2022/10/13 08:57:16;;;;;;;7.40;4.43;;;19.40;99.90;;;;;;5026689;28;20080;-84
2022/10/13 08:59:42;;;;;;;8.63;5.00;;;19.30;99.90;;;;;;5011828;28;20022;-85
2022/10/13 09:02:28;;;;;;;9.57;4.63;;;19.40;99.90;;;;;;5011163;28;20037;-84
2022/10/13 09:04:57;;;;;;;5.75;4.03;;;19.80;99.90;;;;;;5010270;28;20040;-85
2022/10/13 09:07:30;;;;;;;7.20;4.50;;;19.90;99.90;;;;;;5012014;28;20045;-85
2022/10/13 09:09:56;;;;;;;6.63;4.22;;;19.90;99.90;;;;;;5011557;28;20034;-85
2022/10/13 09:12:23;;;;;;;6.00;4.20;;;19.80;99.90;;;;;;5010888;28;20110;-85
2022/10/13 09:15:07;;;;;;;5.18;4.28;;;20.00;99.90;;;;;;5010745;28;20026;-86
2022/10/13 09:17:34;;;;;;;8.50;4.78;;;19.70;99.90;;;;;;5014004;28;20542;-85
2022/10/13 09:20:04;;;;;;;6.65;4.55;;;19.20;99.90;;;;;;5012761;28;20014;-86
2022/10/13 09:22:35;;;;;;;8.55;3.83;;;19.40;99.90;;;;;;5014496;28;20052;-85
2022/10/13 09:25:10;;;;;;;;;;;19.40;99.90;;;;;;5028055;28;20043;-86
2022/10/13 09:27:58;;;;;;;8.45;4.60;;;19.10;99.90;;;;;;5014648;28;19913;-85
2022/10/13 09:30:34;;;;;;;5.80;3.90;;;19.00;99.90;;;;;;5014976;28;20040;-86
2022/10/13 09:33:22;;;;;;;7.97;5.10;;;19.20;99.90;;;;;;5012815;28;20030;-85
2022/10/13 09:36:01;;;;;;;6.30;4.22;;;19.50;99.90;;;;;;5012599;28;20022;-85
2022/10/13 09:38:27;;;;;;;6.22;4.38;;;19.80;99.90;;;;;;5012741;28;20032;-85
2022/10/13 09:40:59;;;;;;;7.45;4.68;;;20.00;99.90;;;;;;5010885;28;20042;-85
2022/10/13 09:43:27;;;;;;;;;;;20.00;99.90;;;;;;5019779;28;20040;-86
2022/10/13 09:45:53;;;;;;;6.85;3.95;;;19.90;99.90;;;;;;5026077;28;20004;-85
2022/10/13 09:48:26;;;;;;;5.25;4.20;;;19.80;99.90;;;;;;5026536;28;20474;-85
2022/10/13 09:50:54;;;;;;;5.95;4.25;;;19.90;99.90;;;;;;5025445;28;20075;-85
2022/10/13 09:53:39;;;;;;;5.47;3.60;;;20.00;99.90;;;;;;5011083;28;20018;-85
2022/10/13 09:56:30;;;;;;;6.53;3.72;;;19.90;99.90;;;;;;5000889;28;20026;-86
2022/10/13 09:59:32;;;;;;;4.30;3.42;;;20.00;99.90;;;;;;5025477;28;20491;-85
2022/10/13 10:02:02;;;;;;;5.80;3.75;;;20.00;99.90;;;;;;5025502;28;20026;-85
2022/10/13 10:04:36;;;;;;;7.50;3.65;;;20.00;99.90;;;;;;5010911;28;20026;-86
2022/10/13 10:07:19;;;;;;;5.03;3.85;;;19.90;99.90;;;;;;5010925;28;20037;-85
2022/10/13 10:09:49;;;;;;;4.03;3.63;;;20.00;99.90;;;;;;5025846;28;20533;-86
2022/10/13 10:12:19;;;;;;;7.38;4.75;;;20.00;99.90;;;;;;5009791;28;20535;-84
2022/10/13 10:14:47;;;;;;;7.13;4.93;;;19.70;99.90;;;;;;5011118;28;20109;-85
2022/10/13 10:17:58;;;;;;;7.35;4.78;;;19.60;99.90;;;;;;5011236;28;20026;-84
2022/10/13 10:20:29;;;;;;;6.95;4.07;;;19.90;99.90;;;;;;5009730;28;20181;-85
2022/10/13 10:23:21;;;;;;;6.03;4.60;;;20.10;99.90;;;;;;5010184;28;20060;-85
2022/10/13 10:25:52;;;;;;;;;;;20.30;99.90;;;;;;5020972;28;20042;-86
2022/10/13 10:28:30;;;;;;;6.97;4.35;;;20.50;99.90;;;;;;5027881;28;19995;-85
2022/10/13 10:31:28;;;;;;;7.90;4.70;;;20.20;99.90;;;;;;5026425;28;20045;-84
2022/10/13 10:34:08;;;;;;;6.60;4.60;;;20.10;99.90;;;;;;5022600;28;20506;-85
2022/10/13 10:36:56;;;;;;;10.70;4.95;;;19.80;99.90;;;;;;5018818;28;20507;-87
2022/10/13 10:39:48;;;;;;;6.97;4.82;;;19.80;99.90;;;;;;5028009;28;20029;-86
2022/10/13 10:42:43;;;;;;;7.00;4.70;;;19.80;99.90;;;;;;5010798;28;20061;-83
2022/10/13 10:45:16;;;;;;;7.57;4.45;;;20.00;99.90;;;;;;5023510;28;20119;-82
2022/10/13 10:47:46;;;;;;;5.57;4.05;;;20.30;99.90;;;;;;5027850;28;20550;-83
2022/10/13 10:50:14;;;;;;;7.05;4.00;;;20.60;99.90;;;;;;5027018;28;20076;-83
2022/10/13 10:53:12;;;;;;;3.90;3.50;;;20.80;99.90;;;;;;5026873;28;20056;-83
2022/10/13 10:55:51;;;;;;;5.75;3.70;;;21.10;99.90;;;;;;5027013;28;20034;-82
2022/10/13 10:58:41;;;;;;;4.68;3.38;;;21.20;99.90;;;;;;5027393;28;20645;-82
2022/10/13 11:01:10;;;;;;;6.32;3.90;;;21.20;99.90;;;;;;5024072;28;20241;-83
2022/10/13 11:03:49;;;;;;;3.90;3.50;;;21.30;99.90;;;;;;5012414;28;20042;-83
2022/10/13 11:06:15;;;;;;;3.60;3.20;;;21.10;99.90;;;;;;5024609;28;20038;-82
2022/10/13 11:08:46;;;;;;;5.72;3.30;;;21.10;99.90;;;;;;5010500;28;20022;-83
2022/10/13 11:11:29;;;;;;;3.10;2.90;;;21.10;99.90;;;;;;5009104;28;20515;-84
2022/10/13 11:14:01;;;;;;;3.15;2.85;;;21.20;99.90;;;;;;5008782;28;20034;-84
2022/10/13 11:16:57;;;;;;;3.45;3.15;;;21.10;99.90;;;;;;5009658;28;20018;-85
2022/10/13 11:19:39;;;;;;;3.83;3.30;;;20.90;99.90;;;;;;5010065;28;20033;-84
2022/10/13 11:22:04;;;;;;;7.95;3.15;;;21.00;99.90;;;;;;5013361;28;20189;-85
2022/10/13 11:24:37;;;;;;;3.75;3.33;;;21.10;99.90;;;;;;5014042;28;20171;-85
2022/10/13 11:27:15;;;;;;;6.50;3.33;;;21.20;99.90;;;;;;5013234;28;20037;-85
2022/10/13 11:29:52;;;;;;;6.72;3.35;;;21.10;99.90;;;;;;5000631;28;20026;-85
2022/10/13 11:32:29;;;;;;;8.15;4.13;;;20.90;99.90;;;;;;5012503;28;20117;-85
2022/10/13 11:35:17;;;;;;;4.50;3.53;;;20.80;99.90;;;;;;5028970;28;20025;-85
2022/10/13 11:37:59;;;;;;;6.35;3.60;;;21.10;99.90;;;;;;5013491;28;20044;-85
2022/10/13 11:40:59;;;;;;;4.90;3.42;;;21.30;99.90;;;;;;5013440;28;20052;-85
2022/10/13 11:43:34;;;;;;;5.90;3.63;;;21.30;99.90;;;;;;5012902;28;20022;-85
2022/10/13 11:46:18;;;;;;;8.52;4.22;;;21.30;99.90;;;;;;5013233;28;20029;-84
2022/10/13 11:48:59;;;;;;;8.50;4.28;;;21.50;99.90;;;;;;5013394;28;20030;-85
2022/10/13 11:51:54;;;;;;;9.10;4.85;;;21.40;99.90;;;;;;5030371;28;20057;-84
2022/10/13 11:54:26;;;;;;;6.57;4.45;;;21.70;99.90;;;;;;5003812;28;20108;-84
2022/10/13 11:56:52;;;;;;;;;;;21.90;99.90;;;;;;5013436;28;20034;-84
2022/10/13 11:59:30;;;;;;;8.10;3.88;;;22.00;99.90;;;;;;5009869;28;19906;-85
2022/10/13 12:02:10;;;;;;;5.22;3.80;;;21.90;99.90;;;;;;5010772;28;20029;-84
2022/10/13 12:04:39;;;;;;;10.07;4.25;;;21.90;99.90;;;;;;5013794;28;20032;-84
2022/10/13 12:07:08;;;;;;;6.10;4.47;;;22.10;99.90;;;;;;5012889;28;20108;-84
2022/10/13 12:09:47;;;;;;;6.50;4.07;;;22.10;99.90;;;;;;5012799;28;20080;-84
2022/10/13 12:12:16;;;;;;;6.05;4.43;;;22.30;99.90;;;;;;5012082;28;20053;-83
2022/10/13 12:14:44;;;;;;;5.63;3.83;;;22.10;99.90;;;;;;5009895;28;20262;-84
2022/10/13 12:17:22;;;;;;;5.68;4.40;;;22.00;99.90;;;;;;5013028;28;20081;-86
2022/10/13 12:19:49;;;;;;;6.53;3.30;;;22.10;99.90;;;;;;5013225;28;20021;-84
2022/10/13 12:22:14;;;;;;;3.38;3.08;;;22.10;99.90;;;;;;5028058;28;20042;-84
2022/10/13 12:24:40;;;;;;;6.03;3.70;;;22.10;99.90;;;;;;5013721;28;20407;-84
2022/10/13 12:27:16;;;;;;;6.05;3.55;;;22.20;99.90;;;;;;5013161;28;20037;-83
2022/10/13 12:29:41;;;;;;;9.05;3.47;;;22.50;99.90;;;;;;5027190;28;20109;-82
2022/10/13 12:32:29;;;;;;;9.77;4.28;;;22.70;99.90;;;;;;5011104;28;20307;-83
2022/10/13 12:34:55;;;;;;;8.50;4.45;;;22.60;99.90;;;;;;5000577;28;20022;-83
2022/10/13 12:37:32;;;;;;;8.30;4.40;;;22.70;99.90;;;;;;5012940;28;20026;-84
2022/10/13 12:40:00;;;;;;;8.45;3.90;;;22.70;99.90;;;;;;5012891;28;20029;-84
2022/10/13 12:42:36;;;;;;;6.32;3.67;;;22.80;99.90;;;;;;5011590;28;20111;-82
2022/10/13 12:45:03;;;;;;;8.45;3.80;;;22.80;99.90;;;;;;5012150;28;20049;-85
2022/10/13 12:47:43;;;;;;;6.03;3.65;;;22.70;99.90;;;;;;5012516;28;20033;-84
2022/10/13 12:50:26;;;;;;;5.35;3.08;;;22.70;99.90;;;;;;5011516;28;20029;-84
2022/10/13 12:53:02;;;;;;;11.40;4.32;;;22.70;99.90;;;;;;5009633;28;20026;-84
2022/10/13 12:55:29;;;;;;;10.00;4.15;;;22.80;99.90;;;;;;5011788;28;20022;-84
2022/10/13 12:57:55;;;;;;;8.38;4.28;;;22.80;99.90;;;;;;5032485;28;20025;-85
2022/10/13 13:00:23;;;;;;;6.60;3.60;;;22.80;99.90;;;;;;5005199;28;20080;-85
2022/10/13 13:03:00;;;;;;;6.80;3.83;;;22.90;99.90;;;;;;5026235;28;20030;-84
2022/10/13 13:05:30;;;;;;;6.38;3.78;;;22.90;99.90;;;;;;5004296;28;20100;-85